Time;durP1;ratioP1;P1;durP2;ratioP2;P2;SDS_P1;SDS_P2;PMS_P1;PMS_P2;Temp;Humidity;BMP_temperature;BMP_pressure;BME280_temperature;BME280_humidity;BME280_pressure;Samples;Min_cycle;Max_cycle;Signal;HPM_P1;HPM_P2
2021/05/03 00:02:13;;;;;;;9.73;5.07;;;;;;;;;;4360306;33;20678;-80
2021/05/03 00:04:39;;;;;;;5.83;4.50;;;;;;;;;;4360865;32;20186;-79
2021/05/03 00:07:04;;;;;;;7.03;5.00;;;;;;;;;;4360574;32;20178;-78
2021/05/03 00:09:29;;;;;;;6.63;4.90;;;;;;;;;;4360649;32;20139;-78
2021/05/03 00:11:55;;;;;;;8.37;4.80;;;;;;;;;;4371950;32;20201;-75
2021/05/03 00:14:20;;;;;;;9.90;5.00;;;;;;;;;;4359995;33;20158;-79
2021/05/03 00:16:45;;;;;;;8.20;4.93;;;;;;;;;;4360207;33;20215;-79
2021/05/03 00:19:10;;;;;;;6.33;5.27;;;;;;;;;;4360209;32;20166;-79
2021/05/03 00:21:36;;;;;;;8.20;5.10;;;;;;;;;;4360888;32;20138;-78
2021/05/03 00:24:01;;;;;;;9.37;5.27;;;;;;;;;;4360371;32;20173;-79
2021/05/03 00:26:26;;;;;;;10.00;5.67;;;;;;;;;;4360509;32;20136;-78
2021/05/03 00:28:52;;;;;;;9.77;6.03;;;;;;;;;;4360240;32;20449;-79
2021/05/03 00:31:17;;;;;;;9.77;6.00;;;;;;;;;;4360387;32;20158;-79
2021/05/03 00:33:42;;;;;;;10.47;6.50;;;;;;;;;;4360100;33;20143;-77
2021/05/03 00:36:17;;;;;;;9.07;5.97;;;;;;;;;;4360026;32;20195;-78
2021/05/03 00:38:42;;;;;;;10.60;6.27;;;;;;;;;;4362255;32;20138;-79
2021/05/03 00:41:07;;;;;;;12.50;6.90;;;;;;;;;;4363738;33;20138;-81
2021/05/03 00:43:32;;;;;;;11.27;5.73;;;;;;;;;;4366083;32;20158;-80
2021/05/03 00:46:01;;;;;;;10.97;6.40;;;;;;;;;;4361371;33;20584;-79
2021/05/03 00:48:26;;;;;;;10.70;6.70;;;;;;;;;;4361306;33;20185;-79
2021/05/03 00:50:51;;;;;;;11.27;7.10;;;;;;;;;;4360526;33;20584;-79
2021/05/03 00:53:17;;;;;;;12.70;7.50;;;;;;;;;;4360032;33;20230;-80
2021/05/03 00:55:42;;;;;;;14.13;7.83;;;;;;;;;;4360675;33;20545;-79
2021/05/03 00:58:08;;;;;;;9.77;6.40;;;;;;;;;;4358602;33;20217;-78
2021/05/03 01:00:33;;;;;;;12.57;7.23;;;;;;;;;;4359944;33;20607;-79
2021/05/03 01:02:59;;;;;;;10.87;7.00;;;;;;;;;;4358952;33;20568;-79
2021/05/03 01:05:28;;;;;;;10.97;6.97;;;;;;;;;;4360319;33;20167;-79
2021/05/03 01:07:53;;;;;;;10.73;7.23;;;;;;;;;;4359813;33;20139;-79
2021/05/03 01:10:18;;;;;;;11.97;7.03;;;;;;;;;;4371470;32;20502;-79
2021/05/03 01:12:44;;;;;;;11.70;7.53;;;;;;;;;;4360323;33;20166;-79
2021/05/03 01:15:10;;;;;;;11.47;7.60;;;;;;;;;;4359738;33;20197;-79
2021/05/03 01:17:36;;;;;;;9.87;7.13;;;;;;;;;;4360204;33;20604;-79
2021/05/03 01:20:09;;;;;;;15.07;7.70;;;;;;;;;;4371076;32;20190;-79
2021/05/03 01:22:37;;;;;;;11.60;7.43;;;;;;;;;;4360192;33;20147;-79
2021/05/03 01:25:03;;;;;;;13.67;8.07;;;;;;;;;;4360253;32;20142;-79
2021/05/03 01:27:28;;;;;;;10.30;7.57;;;;;;;;;;4361323;32;20560;-79
2021/05/03 01:30:20;;;;;;;14.90;8.00;;;;;;;;;;4362803;32;20205;-79
2021/05/03 01:32:45;;;;;;;13.27;8.27;;;;;;;;;;4362427;33;20209;-79
2021/05/03 01:35:13;;;;;;;15.00;8.83;;;;;;;;;;4362427;32;20132;-78
2021/05/03 01:37:38;;;;;;;14.27;8.73;;;;;;;;;;4362992;32;20151;-78
2021/05/03 01:40:04;;;;;;;14.10;9.20;;;;;;;;;;4362932;32;20606;-79
2021/05/03 01:42:30;;;;;;;14.03;8.33;;;;;;;;;;4362753;32;20138;-78
2021/05/03 01:44:59;;;;;;;14.87;10.13;;;;;;;;;;4362653;32;20530;-79
2021/05/03 01:47:24;;;;;;;14.80;9.27;;;;;;;;;;4361127;33;20606;-78
2021/05/03 01:49:55;;;;;;;15.43;10.23;;;;;;;;;;4362989;32;20150;-79
2021/05/03 01:52:21;;;;;;;16.90;9.60;;;;;;;;;;4363069;32;20195;-79
2021/05/03 01:54:47;;;;;;;18.83;10.17;;;;;;;;;;4362222;32;20170;-79
2021/05/03 01:57:12;;;;;;;13.57;9.57;;;;;;;;;;4362217;33;20147;-78
2021/05/03 01:59:39;;;;;;;16.73;9.80;;;;;;;;;;4362137;32;20150;-78
2021/05/03 02:02:04;;;;;;;20.43;10.73;;;;;;;;;;4360826;33;20218;-78
2021/05/03 02:04:38;;;;;;;16.13;10.57;;;;;;;;;;4362472;32;20147;-78
2021/05/03 02:07:04;;;;;;;17.97;11.30;;;;;;;;;;4361369;33;20209;-78
2021/05/03 02:09:35;;;;;;;20.60;11.10;;;;;;;;;;4362706;33;20159;-78
2021/05/03 02:12:00;;;;;;;18.27;11.30;;;;;;;;;;4373331;32;20572;-79
2021/05/03 02:14:25;;;;;;;16.63;11.53;;;;;;;;;;4348411;33;20194;-79
2021/05/03 02:16:51;;;;;;;17.43;10.70;;;;;;;;;;4360693;32;20163;-78
2021/05/03 02:19:16;;;;;;;19.13;11.10;;;;;;;;;;4362198;33;20147;-78
2021/05/03 02:21:41;;;;;;;16.53;10.87;;;;;;;;;;4362493;32;20181;-78
2021/05/03 02:24:07;;;;;;;17.07;11.13;;;;;;;;;;4361964;32;20165;-78
2021/05/03 02:26:37;;;;;;;15.00;10.73;;;;;;;;;;4361704;33;20166;-78
2021/05/03 02:29:03;;;;;;;20.23;11.57;;;;;;;;;;4361840;33;20524;-78
2021/05/03 02:31:28;;;;;;;16.17;10.90;;;;;;;;;;4361657;33;20185;-78
2021/05/03 02:33:53;;;;;;;17.23;10.80;;;;;;;;;;4361765;32;20166;-78
2021/05/03 02:36:19;;;;;;;17.60;11.30;;;;;;;;;;4361519;32;20147;-78
2021/05/03 02:38:44;;;;;;;17.57;11.80;;;;;;;;;;4362361;32;20194;-78
2021/05/03 02:41:10;;;;;;;18.53;10.80;;;;;;;;;;4361863;32;20140;-78
2021/05/03 02:43:46;;;;;;;18.53;10.80;;;;;;;;;;4361478;33;20139;-78
2021/05/03 02:46:14;;;;;;;17.43;10.77;;;;;;;;;;4362420;32;20182;-78
2021/05/03 02:48:40;;;;;;;18.03;11.00;;;;;;;;;;4361459;32;20147;-78
2021/05/03 02:51:05;;;;;;;17.23;11.03;;;;;;;;;;4361759;32;20519;-78
2021/05/03 02:53:30;;;;;;;16.63;11.10;;;;;;;;;;4347724;33;20205;-79
2021/05/03 02:55:55;;;;;;;17.73;11.03;;;;;;;;;;4360651;32;20186;-78
2021/05/03 02:58:21;;;;;;;18.73;10.90;;;;;;;;;;4361367;32;20186;-79
2021/05/03 03:00:49;;;;;;;19.87;12.13;;;;;;;;;;4361324;32;20557;-78
2021/05/03 03:03:14;;;;;;;24.57;13.37;;;;;;;;;;4361979;32;20525;-79
2021/05/03 03:05:39;;;;;;;20.33;12.73;;;;;;;;;;4361125;32;20169;-77
2021/05/03 03:08:05;;;;;;;23.53;14.17;;;;;;;;;;4361199;32;20173;-79
2021/05/03 03:10:30;;;;;;;23.07;14.43;;;;;;;;;;4361099;32;20210;-79
2021/05/03 03:12:56;;;;;;;23.67;15.90;;;;;;;;;;4361871;32;20202;-78
2021/05/03 03:15:23;;;;;;;22.93;14.90;;;;;;;;;;4361171;32;20174;-78
2021/05/03 03:17:50;;;;;;;25.03;15.47;;;;;;;;;;4361599;32;20181;-78
2021/05/03 03:20:15;;;;;;;27.03;15.80;;;;;;;;;;4360969;32;20209;-78
2021/05/03 03:22:40;;;;;;;28.23;17.27;;;;;;;;;;4362244;32;20451;-79
2021/05/03 03:25:06;;;;;;;27.20;17.20;;;;;;;;;;4361363;32;20202;-78
2021/05/03 03:27:32;;;;;;;29.30;17.30;;;;;;;;;;4360047;32;20230;-78
2021/05/03 03:29:57;;;;;;;29.10;18.23;;;;;;;;;;4360695;33;20135;-78
2021/05/03 03:32:23;;;;;;;27.43;16.10;;;;;;;;;;4347172;33;20492;-78
2021/05/03 03:34:48;;;;;;;28.97;17.70;;;;;;;;;;4361297;32;20488;-79
2021/05/03 03:37:13;;;;;;;30.37;19.03;;;;;;;;;;4361158;32;20198;-79
2021/05/03 03:39:38;;;;;;;33.23;19.10;;;;;;;;;;4361575;32;20158;-79
2021/05/03 03:42:04;;;;;;;33.07;18.87;;;;;;;;;;4361635;32;20163;-78
2021/05/03 03:44:29;;;;;;;32.90;19.83;;;;;;;;;;4347544;33;20163;-77
2021/05/03 03:46:56;;;;;;;34.80;20.07;;;;;;;;;;4360570;33;20212;-78
2021/05/03 03:49:28;;;;;;;32.67;21.07;;;;;;;;;;4360709;32;20132;-80
2021/05/03 03:51:53;;;;;;;36.23;19.73;;;;;;;;;;4360960;32;20123;-78
2021/05/03 03:54:19;;;;;;;32.00;19.53;;;;;;;;;;4360939;32;20243;-79
2021/05/03 03:56:44;;;;;;;32.90;19.43;;;;;;;;;;4360400;32;20662;-79
2021/05/03 03:59:11;;;;;;;33.80;20.33;;;;;;;;;;4360497;32;20135;-78
2021/05/03 04:01:37;;;;;;;32.43;19.93;;;;;;;;;;4360965;33;20631;-78
2021/05/03 04:04:03;;;;;;;37.70;19.57;;;;;;;;;;4360509;32;20131;-76
2021/05/03 04:09:17;;;;;;;30.43;18.57;;;;;;;;;;4360757;32;20620;-79
2021/05/03 04:25:23;;;;;;;27.00;17.20;;;;;;;;;;4360434;32;20131;-79
2021/05/03 04:27:50;;;;;;;29.40;15.83;;;;;;;;;;4360481;32;20188;-79
2021/05/03 04:30:16;;;;;;;26.00;16.37;;;;;;;;;;4360383;32;20139;-78
2021/05/03 04:32:49;;;;;;;26.40;16.97;;;;;;;;;;4359980;32;20185;-78
2021/05/03 04:35:14;;;;;;;26.13;16.73;;;;;;;;;;4359586;32;20499;-78
2021/05/03 04:37:39;;;;;;;24.00;15.40;;;;;;;;;;4359135;33;20167;-78
2021/05/03 04:40:05;;;;;;;25.73;15.40;;;;;;;;;;4360700;32;20197;-80
2021/05/03 04:42:30;;;;;;;25.60;15.10;;;;;;;;;;4359885;33;20139;-79
2021/05/03 04:44:55;;;;;;;24.93;14.50;;;;;;;;;;4361861;32;20198;-79
2021/05/03 04:47:21;;;;;;;21.73;14.30;;;;;;;;;;4359931;33;20143;-79
2021/05/03 04:49:46;;;;;;;25.77;16.03;;;;;;;;;;4358661;33;20734;-77
2021/05/03 04:52:11;;;;;;;26.75;16.15;;;;;;;;;;4360286;33;20154;-76
2021/05/03 04:54:36;;;;;;;25.27;15.43;;;;;;;;;;4360247;33;20181;-78
2021/05/03 04:57:02;;;;;;;29.57;16.97;;;;;;;;;;4360573;33;20143;-78
2021/05/03 04:59:27;;;;;;;23.90;14.07;;;;;;;;;;4360222;32;20157;-79
2021/05/03 05:01:52;;;;;;;29.07;15.77;;;;;;;;;;4363275;32;20177;-77
2021/05/03 05:04:17;;;;;;;25.60;15.87;;;;;;;;;;4361928;32;20163;-74
2021/05/03 05:06:43;;;;;;;25.83;14.73;;;;;;;;;;4362911;33;20164;-77
2021/05/03 05:09:09;;;;;;;23.97;15.57;;;;;;;;;;4363344;32;20150;-76
2021/05/03 05:11:34;;;;;;;26.97;16.03;;;;;;;;;;4363888;32;20588;-75
2021/05/03 05:14:00;;;;;;;24.37;15.23;;;;;;;;;;4363471;32;20140;-74
2021/05/03 05:16:25;;;;;;;27.87;15.60;;;;;;;;;;4361280;33;20233;-77
2021/05/03 05:18:51;;;;;;;24.57;15.23;;;;;;;;;;4362584;32;20190;-79
2021/05/03 05:21:16;;;;;;;26.10;14.20;;;;;;;;;;4362540;33;20155;-77
2021/05/03 05:23:41;;;;;;;25.20;15.93;;;;;;;;;;4362540;32;20138;-77
2021/05/03 05:26:08;;;;;;;23.93;14.37;;;;;;;;;;4363236;32;20143;-78
2021/05/03 05:28:33;;;;;;;26.07;15.00;;;;;;;;;;4362492;32;20475;-78
2021/05/03 05:30:59;;;;;;;25.10;15.07;;;;;;;;;;4363630;32;20178;-77
2021/05/03 05:33:24;;;;;;;25.77;14.57;;;;;;;;;;4362648;32;20179;-76
2021/05/03 05:35:49;;;;;;;24.23;13.83;;;;;;;;;;4362579;32;20147;-78
2021/05/03 05:38:14;;;;;;;24.50;15.33;;;;;;;;;;4362673;33;20170;-76
2021/05/03 05:40:40;;;;;;;28.10;16.13;;;;;;;;;;4361993;32;20165;-76
2021/05/03 05:43:05;;;;;;;28.50;16.03;;;;;;;;;;4362538;32;20479;-77
2021/05/03 05:45:31;;;;;;;25.17;14.77;;;;;;;;;;4362629;33;20471;-76
2021/05/03 05:47:56;;;;;;;27.50;15.43;;;;;;;;;;4362410;33;20187;-75
2021/05/03 05:50:24;;;;;;;29.90;17.67;;;;;;;;;;4362185;33;20552;-76
2021/05/03 05:52:49;;;;;;;25.20;17.03;;;;;;;;;;4362564;32;20276;-79
2021/05/03 05:55:14;;;;;;;26.90;15.70;;;;;;;;;;4373383;32;20234;-75
2021/05/03 05:57:40;;;;;;;25.83;16.67;;;;;;;;;;4360848;32;20171;-77
2021/05/03 06:00:05;;;;;;;29.60;17.97;;;;;;;;;;4362097;33;20160;-79
2021/05/03 06:02:30;;;;;;;29.73;17.20;;;;;;;;;;4362469;32;20162;-79
2021/05/03 06:04:56;;;;;;;29.40;16.63;;;;;;;;;;4362406;32;20529;-78
2021/05/03 06:07:21;;;;;;;28.23;17.30;;;;;;;;;;4362671;32;20162;-77
2021/05/03 06:09:46;;;;;;;28.10;17.23;;;;;;;;;;4361692;32;20131;-79
2021/05/03 06:12:11;;;;;;;32.80;18.17;;;;;;;;;;4362381;32;20139;-77
2021/05/03 06:14:37;;;;;;;31.10;18.90;;;;;;;;;;4362035;32;20143;-77
2021/05/03 06:17:02;;;;;;;33.70;19.47;;;;;;;;;;4362193;32;20171;-79
2021/05/03 06:19:27;;;;;;;33.50;19.97;;;;;;;;;;4362248;33;20468;-77
2021/05/03 06:21:53;;;;;;;31.17;19.93;;;;;;;;;;4351105;32;20170;-77
2021/05/03 06:24:18;;;;;;;38.00;22.47;;;;;;;;;;4340750;33;20167;-77
2021/05/03 06:26:43;;;;;;;33.93;19.93;;;;;;;;;;4347800;33;20255;-77
2021/05/03 06:29:08;;;;;;;35.60;23.13;;;;;;;;;;4333775;33;20164;-76
2021/05/03 06:31:34;;;;;;;36.60;21.03;;;;;;;;;;4360462;32;20140;-78
2021/05/03 06:33:59;;;;;;;38.77;23.60;;;;;;;;;;4349091;33;20162;-79
2021/05/03 06:36:24;;;;;;;34.37;20.10;;;;;;;;;;4348318;33;20179;-75
2021/05/03 06:38:50;;;;;;;41.13;23.70;;;;;;;;;;4347381;33;20140;-78
2021/05/03 06:41:15;;;;;;;47.73;26.00;;;;;;;;;;4348396;33;20167;-77
2021/05/03 06:43:40;;;;;;;43.00;24.03;;;;;;;;;;4343169;33;20151;-73
2021/05/03 06:46:05;;;;;;;52.03;27.97;;;;;;;;;;4345629;33;20151;-76
2021/05/03 06:48:30;;;;;;;48.60;28.30;;;;;;;;;;4345803;32;20513;-71
2021/05/03 06:50:56;;;;;;;49.80;29.63;;;;;;;;;;4346658;33;20205;-75
2021/05/03 06:53:21;;;;;;;46.93;28.67;;;;;;;;;;4347506;33;20140;-75
2021/05/03 06:55:46;;;;;;;47.63;27.70;;;;;;;;;;4346695;33;20190;-73
2021/05/03 06:58:12;;;;;;;54.90;31.77;;;;;;;;;;4346834;33;20147;-74
2021/05/03 07:00:40;;;;;;;53.33;31.97;;;;;;;;;;4346728;33;20166;-74
2021/05/03 07:03:12;;;;;;;54.27;31.43;;;;;;;;;;4346495;33;20178;-76
2021/05/03 07:05:40;;;;;;;53.70;27.67;;;;;;;;;;4332566;33;20182;-72
2021/05/03 07:08:06;;;;;;;53.40;30.90;;;;;;;;;;4346053;33;20140;-74
2021/05/03 07:10:32;;;;;;;59.07;34.37;;;;;;;;;;4345905;33;20201;-71
2021/05/03 07:12:57;;;;;;;55.87;31.50;;;;;;;;;;4346495;33;20139;-72
2021/05/03 07:15:23;;;;;;;60.37;33.40;;;;;;;;;;4346972;33;20163;-74
2021/05/03 07:17:48;;;;;;;65.63;34.60;;;;;;;;;;4345561;33;20143;-75
2021/05/03 07:20:14;;;;;;;67.90;34.77;;;;;;;;;;4347056;33;20135;-74
2021/05/03 07:22:39;;;;;;;59.73;33.90;;;;;;;;;;4345728;33;20511;-76
2021/05/03 07:25:06;;;;;;;62.00;36.90;;;;;;;;;;4345563;33;20163;-76
2021/05/03 07:27:31;;;;;;;64.73;36.20;;;;;;;;;;4346230;33;20167;-75
2021/05/03 07:29:56;;;;;;;64.00;36.53;;;;;;;;;;4333358;33;20482;-73
2021/05/03 07:32:22;;;;;;;68.13;36.13;;;;;;;;;;4351676;33;20158;-76
2021/05/03 07:34:50;;;;;;;63.72;37.88;;;;;;;;;;4360887;32;20150;-76
2021/05/03 07:37:15;;;;;;;68.63;36.90;;;;;;;;;;4360766;32;20190;-76
2021/05/03 07:39:44;;;;;;;61.60;35.30;;;;;;;;;;4360143;33;20214;-78
2021/05/03 07:42:09;;;;;;;66.60;38.20;;;;;;;;;;4360849;32;20131;-75
2021/05/03 07:44:35;;;;;;;62.50;36.87;;;;;;;;;;4360183;33;20313;-75
2021/05/03 07:47:00;;;;;;;52.38;27.40;;;;;;;;;;4346349;33;20159;-75
2021/05/03 07:49:25;;;;;;;66.93;36.60;;;;;;;;;;4347465;33;20225;-77
2021/05/03 07:51:51;;;;;;;64.60;38.03;;;;;;;;;;4360457;33;20143;-75
2021/05/03 07:54:16;;;;;;;59.90;31.90;;;;;;;;;;4361017;32;20209;-75
2021/05/03 07:56:42;;;;;;;54.92;31.10;;;;;;;;;;4346463;33;20235;-74
2021/05/03 07:59:08;;;;;;;58.58;33.60;;;;;;;;;;4360376;32;20138;-77
2021/05/03 08:01:33;;;;;;;57.80;32.85;;;;;;;;;;4360109;32;20169;-76
2021/05/03 08:03:58;;;;;;;59.13;35.22;;;;;;;;;;4360755;32;20143;-79
2021/05/03 08:06:24;;;;;;;57.42;33.97;;;;;;;;;;4360276;32;20139;-80
2021/05/03 08:08:49;;;;;;;59.00;35.17;;;;;;;;;;4359979;33;20143;-76
2021/05/03 08:11:15;;;;;;;52.70;29.77;;;;;;;;;;4359518;32;20202;-76
2021/05/03 08:13:42;;;;;;;54.10;29.73;;;;;;;;;;4344878;33;20490;-79
2021/05/03 08:16:10;;;;;;;55.95;34.13;;;;;;;;;;4345095;33;20222;-76
2021/05/03 08:18:35;;;;;;;54.67;34.38;;;;;;;;;;4331759;33;20529;-79
2021/05/03 08:21:01;;;;;;;54.73;32.43;;;;;;;;;;4345362;33;20143;-78
2021/05/03 08:23:27;;;;;;;49.83;30.25;;;;;;;;;;4351256;33;20499;-80
2021/05/03 08:25:53;;;;;;;60.95;34.05;;;;;;;;;;4358797;33;20548;-76
2021/05/03 08:28:19;;;;;;;52.20;33.90;;;;;;;;;;4356485;33;20170;-74
2021/05/03 08:30:44;;;;;;;55.85;34.88;;;;;;;;;;4346829;33;20573;-75
2021/05/03 08:33:10;;;;;;;57.22;31.35;;;;;;;;;;4359168;33;20514;-76
2021/05/03 08:35:35;;;;;;;52.22;32.88;;;;;;;;;;4359237;32;20642;-77
2021/05/03 08:38:00;;;;;;;59.80;34.95;;;;;;;;;;4346025;33;20225;-77
2021/05/03 08:40:26;;;;;;;57.65;33.63;;;;;;;;;;4360177;32;20503;-78
2021/05/03 08:42:51;;;;;;;47.08;30.70;;;;;;;;;;4346290;33;20232;-77
2021/05/03 08:45:16;;;;;;;49.22;31.00;;;;;;;;;;4346250;33;20183;-77
2021/05/03 08:47:53;;;;;;;42.95;23.87;;;;;;;;;;4360410;33;20596;-78
2021/05/03 08:50:26;;;;;;;44.40;26.42;;;;;;;;;;4360258;33;20147;-75
2021/05/03 08:52:55;;;;;;;48.30;30.10;;;;;;;;;;4359645;33;20151;-77
2021/05/03 08:55:20;;;;;;;41.85;25.40;;;;;;;;;;4359501;33;20178;-75
2021/05/03 08:57:45;;;;;;;46.40;27.33;;;;;;;;;;4360301;33;20135;-76
2021/05/03 09:00:17;;;;;;;41.63;25.50;;;;;;;;;;4359457;33;20219;-76
2021/05/03 09:02:45;;;;;;;40.03;25.42;;;;;;;;;;4360005;33;20155;-78
2021/05/03 09:05:11;;;;;;;41.70;28.67;;;;;;;;;;4359553;33;20135;-76
2021/05/03 09:07:44;;;;;;;36.78;24.48;;;;;;;;;;4359105;33;20167;-78
2021/05/03 09:10:13;;;;;;;38.83;24.83;;;;;;;;;;4360558;33;20138;-78
2021/05/03 09:12:39;;;;;;;37.30;22.42;;;;;;;;;;4359480;33;20198;-75
2021/05/03 09:15:04;;;;;;;38.70;23.70;;;;;;;;;;4359703;33;20461;-74
2021/05/03 09:17:34;;;;;;;33.22;19.70;;;;;;;;;;4359756;33;20151;-79
2021/05/03 09:20:07;;;;;;;37.30;22.33;;;;;;;;;;4359391;33;20161;-79
2021/05/03 09:22:42;;;;;;;35.58;22.15;;;;;;;;;;4346130;33;20155;-80
2021/05/03 09:25:23;;;;;;;33.80;21.87;;;;;;;;;;4346087;33;20154;-77
2021/05/03 09:27:49;;;;;;;35.05;21.17;;;;;;;;;;4345753;33;20162;-80
2021/05/03 09:30:15;;;;;;;31.27;19.20;;;;;;;;;;4360209;33;20157;-79
2021/05/03 09:32:41;;;;;;;33.35;23.17;;;;;;;;;;4359159;33;20155;-78
2021/05/03 09:35:06;;;;;;;31.17;18.62;;;;;;;;;;4359762;33;20213;-76
2021/05/03 09:37:34;;;;;;;28.40;19.20;;;;;;;;;;4345539;33;20214;-80
2021/05/03 09:40:05;;;;;;;26.00;18.48;;;;;;;;;;4358987;33;20593;-80
2021/05/03 09:42:49;;;;;;;26.98;19.55;;;;;;;;;;4359533;33;20147;-80
2021/05/03 09:45:14;;;;;;;26.70;18.12;;;;;;;;;;4359591;33;20170;-79
2021/05/03 09:47:40;;;;;;;28.58;18.40;;;;;;;;;;4347163;33;20171;-78
2021/05/03 09:50:07;;;;;;;28.40;17.77;;;;;;;;;;4362301;32;20174;-79
2021/05/03 09:52:32;;;;;;;27.35;17.75;;;;;;;;;;4361763;32;20135;-78
2021/05/03 09:54:58;;;;;;;30.55;18.50;;;;;;;;;;4362609;32;20430;-79
2021/05/03 09:57:23;;;;;;;26.27;16.98;;;;;;;;;;4362236;32;20178;-80
2021/05/03 10:00:01;;;;;;;28.67;17.02;;;;;;;;;;4362094;32;20638;-78
2021/05/03 10:02:35;;;;;;;25.58;17.60;;;;;;;;;;4348725;33;20214;-78
2021/05/03 10:05:14;;;;;;;21.50;14.55;;;;;;;;;;4348387;33;20606;-78
2021/05/03 10:07:51;;;;;;;21.25;15.70;;;;;;;;;;4362299;32;20154;-79
2021/05/03 10:10:36;;;;;;;24.70;15.98;;;;;;;;;;4347219;33;20220;-78
2021/05/03 10:13:10;;;;;;;22.75;13.80;;;;;;;;;;4347246;33;20136;-78
2021/05/03 10:15:35;;;;;;;23.48;15.60;;;;;;;;;;4347081;33;20186;-78
2021/05/03 10:18:09;;;;;;;19.95;12.60;;;;;;;;;;4347215;33;20187;-79
2021/05/03 10:20:34;;;;;;;22.87;14.00;;;;;;;;;;4346270;33;20178;-79
2021/05/03 10:22:59;;;;;;;19.80;13.35;;;;;;;;;;4346750;33;20533;-80
2021/05/03 10:25:25;;;;;;;25.65;15.00;;;;;;;;;;4347716;33;20659;-78
2021/05/03 10:27:58;;;;;;;20.12;13.30;;;;;;;;;;4361407;33;20170;-78
2021/05/03 10:30:24;;;;;;;21.73;14.48;;;;;;;;;;4362338;32;20210;-80
2021/05/03 10:33:10;;;;;;;19.75;13.45;;;;;;;;;;4369958;32;20151;-79
2021/05/03 10:35:43;;;;;;;23.05;15.38;;;;;;;;;;4373920;32;20707;-78
2021/05/03 10:38:29;;;;;;;18.92;13.85;;;;;;;;;;4376591;32;20139;-78
2021/05/03 10:41:15;;;;;;;22.92;13.77;;;;;;;;;;4373806;32;20509;-82
2021/05/03 10:44:01;;;;;;;20.30;14.07;;;;;;;;;;4376731;32;20151;-79
2021/05/03 10:52:33;;;;;;;17.65;10.43;;;;;;;;;;4341825;32;20174;-78
2021/05/03 10:54:59;;;;;;;14.80;11.07;;;;;;;;;;4372925;32;20565;-76
2021/05/03 10:57:27;;;;;;;16.40;10.68;;;;;;;;;;4360988;32;20151;-77
2021/05/03 10:59:55;;;;;;;14.85;9.82;;;;;;;;;;4361484;32;20154;-76
2021/05/03 11:02:39;;;;;;;14.73;10.02;;;;;;;;;;4361336;32;20127;-77
2021/05/03 11:05:25;;;;;;;13.43;9.00;;;;;;;;;;4361321;32;20158;-76
2021/05/03 11:08:28;;;;;;;12.90;7.82;;;;;;;;;;4361654;32;20630;-78
2021/05/03 11:11:24;;;;;;;;;;;;;;;;;;;;;
2021/05/03 11:14:21;;;;;;;;;;;;;;;;;;;;;
2021/05/03 11:16:53;;;;;;;13.43;7.80;;;;;;;;;;4361304;32;20565;-76
2021/05/03 11:22:25;;;;;;;17.58;8.55;;;;;;;;;;4360827;32;20665;-78
2021/05/03 11:25:10;;;;;;;13.15;7.93;;;;;;;;;;4360364;33;20132;-78
2021/05/03 11:28:15;;;;;;;15.38;10.30;;;;;;;;;;4360410;32;20230;-79
2021/05/03 11:30:48;;;;;;;13.98;8.95;;;;;;;;;;4358701;33;20139;-78
2021/05/03 11:33:22;;;;;;;14.95;9.93;;;;;;;;;;4360290;32;20147;-77
2021/05/03 11:38:41;;;;;;;16.27;11.35;;;;;;;;;;4360961;33;20285;-79
2021/05/03 11:46:45;;;;;;;15.65;9.60;;;;;;;;;;4360781;32;20483;-78
2021/05/03 11:49:11;;;;;;;13.90;8.45;;;;;;;;;;4359412;32;20173;-79
2021/05/03 11:51:52;;;;;;;12.43;8.90;;;;;;;;;;4359445;32;20155;-77
2021/05/03 11:55:05;;;;;;;;;;;;;;;;;;;;;
2021/05/03 11:57:37;;;;;;;13.98;9.48;;;;;;;;;;4322121;32;20170;-78
2021/05/03 12:00:43;;;;;;;12.70;9.43;;;;;;;;;;4360619;32;20175;-78
2021/05/03 12:03:12;;;;;;;15.35;10.70;;;;;;;;;;4371308;32;20174;-78
2021/05/03 12:08:29;;;;;;;18.80;11.88;;;;;;;;;;4338366;33;20159;-79
2021/05/03 12:11:15;;;;;;;14.85;9.38;;;;;;;;;;4358249;32;20517;-77
2021/05/03 12:13:47;;;;;;;16.55;11.57;;;;;;;;;;4360472;32;20576;-79
2021/05/03 12:16:29;;;;;;;13.32;10.70;;;;;;;;;;4360879;32;20166;-79
2021/05/03 12:18:58;;;;;;;17.05;11.80;;;;;;;;;;4360591;32;20138;-78
2021/05/03 12:21:23;;;;;;;18.15;11.80;;;;;;;;;;4358940;32;20170;-79
2021/05/03 12:23:51;;;;;;;17.98;12.50;;;;;;;;;;4360387;33;20201;-79
2021/05/03 12:26:16;;;;;;;18.23;14.13;;;;;;;;;;4348634;32;20643;-79
2021/05/03 12:28:51;;;;;;;19.07;14.53;;;;;;;;;;4331854;33;20159;-76
2021/05/03 12:31:19;;;;;;;18.85;14.68;;;;;;;;;;4332610;33;20313;-79
2021/05/03 12:33:44;;;;;;;21.25;15.10;;;;;;;;;;4331741;33;20241;-79
2021/05/03 12:36:21;;;;;;;20.83;13.00;;;;;;;;;;4344953;33;20139;-78
2021/05/03 12:38:46;;;;;;;23.73;15.57;;;;;;;;;;4346014;33;20135;-80
2021/05/03 12:41:36;;;;;;;;;;;;;;;;;;;;;
2021/05/03 12:44:20;;;;;;;;;;;;;;;;;;;;;
2021/05/03 12:46:46;;;;;;;23.10;15.52;;;;;;;;;;4360803;32;20162;-77
2021/05/03 12:49:19;;;;;;;22.23;15.60;;;;;;;;;;4359808;32;20123;-79
2021/05/03 12:52:11;;;;;;;24.20;15.20;;;;;;;;;;4360302;33;20131;-79
2021/05/03 12:54:46;;;;;;;23.90;13.65;;;;;;;;;;4358538;33;20251;-78
2021/05/03 12:57:24;;;;;;;19.62;13.68;;;;;;;;;;4360476;33;20479;-81
2021/05/03 13:00:05;;;;;;;19.15;13.60;;;;;;;;;;4358937;33;20619;-77
2021/05/03 13:02:50;;;;;;;17.23;13.45;;;;;;;;;;4360067;33;20150;-78
2021/05/03 13:05:43;;;;;;;18.90;13.98;;;;;;;;;;4359320;33;20261;-77
2021/05/03 13:28:24;;;;;;;21.58;13.10;;;;;;;;;;4348170;32;20217;-79
2021/05/03 13:31:16;;;;;;;16.92;12.52;;;;;;;;;;4362743;32;20143;-78
2021/05/03 13:33:41;;;;;;;16.67;12.30;;;;;;;;;;4357840;33;20616;-79
2021/05/03 13:36:10;;;;;;;16.05;11.88;;;;;;;;;;4362658;32;20147;-79
2021/05/03 13:38:35;;;;;;;14.48;10.45;;;;;;;;;;4362104;32;20216;-74
2021/05/03 13:41:00;;;;;;;16.07;11.23;;;;;;;;;;4362618;32;20198;-79
2021/05/03 13:43:26;;;;;;;15.65;11.35;;;;;;;;;;4362762;33;20652;-80
2021/05/03 13:45:51;;;;;;;16.55;10.55;;;;;;;;;;4360396;32;20218;-76
2021/05/03 13:48:29;;;;;;;;;;;;;;;;;;;;;
2021/05/03 13:51:07;;;;;;;16.17;11.20;;;;;;;;;;4362566;33;20131;-78
2021/05/03 13:53:33;;;;;;;17.27;10.98;;;;;;;;;;4362472;32;20230;-78
2021/05/03 13:56:34;;;;;;;;;;;;;;;;;;;;;
2021/05/03 13:59:05;;;;;;;20.00;13.23;;;;;;;;;;4362094;32;20614;-79
2021/05/03 14:01:38;;;;;;;17.77;13.35;;;;;;;;;;4362601;32;20169;-78
2021/05/03 14:04:11;;;;;;;16.48;11.30;;;;;;;;;;4362837;32;20190;-79
2021/05/03 14:06:39;;;;;;;17.37;11.40;;;;;;;;;;4362338;32;20201;-78
2021/05/03 14:09:12;;;;;;;17.37;11.55;;;;;;;;;;4362118;32;20139;-76
2021/05/03 14:12:03;;;;;;;14.98;10.35;;;;;;;;;;4362839;32;20171;-77
2021/05/03 14:14:45;;;;;;;;;;;;;;;;;;;;;
2021/05/03 14:17:34;;;;;;;15.45;10.38;;;;;;;;;;4363412;32;20143;-78
2021/05/03 14:20:05;;;;;;;14.48;10.63;;;;;;;;;;4354405;32;20170;-77
2021/05/03 14:22:42;;;;;;;13.20;9.57;;;;;;;;;;4372941;32;20213;-78
2021/05/03 14:25:08;;;;;;;15.68;9.55;;;;;;;;;;4360093;33;20609;-78
2021/05/03 14:27:36;;;;;;;11.68;8.88;;;;;;;;;;4361901;32;20135;-79
2021/05/03 14:30:09;;;;;;;13.18;8.52;;;;;;;;;;4360523;33;20150;-79
2021/05/03 14:33:10;;;;;;;11.35;7.28;;;;;;;;;;4361393;32;20156;-79
2021/05/03 14:38:28;;;;;;;9.43;6.68;;;;;;;;;;4361768;32;20201;-78
2021/05/03 14:41:14;;;;;;;12.15;8.27;;;;;;;;;;4361784;33;20123;-77
2021/05/03 14:44:20;;;;;;;11.95;7.45;;;;;;;;;;4359488;32;20201;-78
2021/05/03 14:47:11;;;;;;;13.43;7.50;;;;;;;;;;4338859;33;20182;-78
2021/05/03 14:50:13;;;;;;;10.02;6.80;;;;;;;;;;4360323;33;20191;-77
2021/05/03 14:55:37;;;;;;;8.52;6.57;;;;;;;;;;4361514;32;20146;-78
2021/05/03 14:58:07;;;;;;;10.48;7.03;;;;;;;;;;4348228;33;20158;-78
2021/05/03 15:00:35;;;;;;;10.93;7.03;;;;;;;;;;4362121;32;20150;-78
2021/05/03 15:03:30;;;;;;;11.25;7.87;;;;;;;;;;4361240;33;20135;-79
2021/05/03 15:05:59;;;;;;;11.88;7.00;;;;;;;;;;4348115;33;20403;-78
2021/05/03 15:08:36;;;;;;;10.63;7.10;;;;;;;;;;4347070;33;20173;-78
2021/05/03 15:11:01;;;;;;;10.32;7.87;;;;;;;;;;4347919;33;20220;-80
2021/05/03 15:16:22;;;;;;;10.43;7.30;;;;;;;;;;4361527;32;20511;-80
2021/05/03 15:21:33;;;;;;;11.10;7.93;;;;;;;;;;4361487;32;20145;-78
2021/05/03 15:24:09;;;;;;;10.45;7.18;;;;;;;;;;4347363;33;20155;-79
2021/05/03 15:26:48;;;;;;;9.65;7.07;;;;;;;;;;4347753;33;20154;-78
2021/05/03 15:29:38;;;;;;;10.75;6.47;;;;;;;;;;4347575;33;20146;-78
2021/05/03 15:34:51;;;;;;;11.95;7.03;;;;;;;;;;4360804;32;20142;-78
2021/05/03 15:37:23;;;;;;;13.05;7.62;;;;;;;;;;4359421;33;20580;-78
2021/05/03 15:39:53;;;;;;;10.85;7.75;;;;;;;;;;4361227;32;20166;-78
2021/05/03 15:42:18;;;;;;;12.37;7.35;;;;;;;;;;4332371;33;20174;-78
2021/05/03 15:44:49;;;;;;;12.75;7.95;;;;;;;;;;4345253;33;20135;-79
2021/05/03 15:47:14;;;;;;;13.48;7.82;;;;;;;;;;4346525;33;20124;-79
2021/05/03 15:49:59;;;;;;;10.35;6.93;;;;;;;;;;4346580;33;20457;-77
2021/05/03 15:55:33;;;;;;;9.90;6.65;;;;;;;;;;4340107;33;20147;-80
2021/05/03 15:58:13;;;;;;;10.23;6.12;;;;;;;;;;4342338;33;20140;-78